Time;durP1;ratioP1;P1;durP2;ratioP2;P2;SDS_P1;SDS_P2;PMS_P1;PMS_P2;Temp;Humidity;BMP_temperature;BMP_pressure;BME280_temperature;BME280_humidity;BME280_pressure;Samples;Min_cycle;Max_cycle;Signal;HPM_P1;HPM_P2
2022/04/08 00:01:40;;;;;;;0.30;0.20;;;;;;;9.55;62.68;98557.09;5052602;28;20497;-51
2022/04/08 00:04:08;;;;;;;0.30;0.20;;;;;;;9.49;62.51;98554.78;5052210;28;20500;-52
2022/04/08 00:06:34;;;;;;;0.30;0.20;;;;;;;9.41;63.15;98557.81;5045189;28;20455;-51
2022/04/08 00:09:02;;;;;;;0.30;0.20;;;;;;;9.43;63.87;98555.09;5052467;28;20455;-51
2022/04/08 00:11:28;;;;;;;0.30;0.20;;;;;;;9.42;63.35;98561.31;5052434;28;20447;-51
2022/04/08 00:13:55;;;;;;;0.30;0.20;;;;;;;9.38;63.74;98552.69;5050957;28;20455;-51
2022/04/08 00:16:22;;;;;;;0.30;0.20;;;;;;;9.44;64.26;98564.75;5052431;28;20481;-51
2022/04/08 00:18:49;;;;;;;0.30;0.20;;;;;;;9.40;64.98;98563.22;5052055;28;20451;-51
2022/04/08 00:21:16;;;;;;;0.30;0.20;;;;;;;9.32;64.94;98560.97;5052408;28;20450;-51
2022/04/08 00:23:44;;;;;;;0.30;0.20;;;;;;;9.42;65.03;98571.94;5052120;28;20559;-51
2022/04/08 00:26:10;;;;;;;0.30;0.20;;;;;;;9.41;64.52;98567.56;5052291;28;20462;-51
2022/04/08 00:28:37;;;;;;;0.30;0.20;;;;;;;9.35;64.73;98578.50;5052086;28;20462;-51
2022/04/08 00:31:04;;;;;;;0.30;0.20;;;;;;;9.32;64.73;98574.22;5052416;28;20450;-51
2022/04/08 00:33:32;;;;;;;0.30;0.20;;;;;;;9.40;64.84;98576.47;5034667;28;20549;-51
2022/04/08 00:36:00;;;;;;;0.30;0.20;;;;;;;9.40;65.13;98581.78;5050479;28;20475;-51
2022/04/08 00:38:27;;;;;;;0.30;0.20;;;;;;;9.35;64.66;98594.41;5051913;28;20446;-51
2022/04/08 00:40:54;;;;;;;0.30;0.20;;;;;;;9.29;64.98;98598.22;5052128;28;20506;-51
2022/04/08 00:43:34;;;;;;;0.30;0.20;;;;;;;9.40;64.79;98603.84;5051844;28;20463;-51
2022/04/08 00:46:03;;;;;;;0.30;0.20;;;;;;;9.33;64.77;98598.94;5052013;28;20822;-51
2022/04/08 00:48:30;;;;;;;0.30;0.20;;;;;;;9.35;64.72;98602.38;5051584;28;20451;-51
2022/04/08 00:50:58;;;;;;;0.30;0.20;;;;;;;9.26;64.99;98611.63;5051801;28;20491;-51
2022/04/08 00:53:26;;;;;;;0.30;0.20;;;;;;;9.24;64.54;98616.16;5051945;28;20588;-51
2022/04/08 00:55:54;;;;;;;0.30;0.20;;;;;;;9.30;65.57;98614.97;5049212;28;20974;-51
2022/04/08 00:58:20;;;;;;;0.30;0.20;;;;;;;9.29;65.03;98629.19;5041688;28;20450;-51
2022/04/08 01:00:47;;;;;;;0.30;0.20;;;;;;;9.17;65.58;98631.50;5051895;28;20447;-51
2022/04/08 01:03:14;;;;;;;0.30;0.20;;;;;;;9.19;65.62;98640.25;5070927;22;20490;-50
2022/04/08 01:05:41;;;;;;;0.30;0.20;;;;;;;9.26;65.53;98643.44;5018651;28;21078;-49
2022/04/08 01:08:10;;;;;;;0.30;0.20;;;;;;;9.34;65.31;98643.09;5021921;28;20448;-49
2022/04/08 01:10:40;;;;;;;0.30;0.20;;;;;;;9.41;65.92;98636.50;5025053;28;20506;-49
2022/04/08 01:13:07;;;;;;;0.30;0.20;;;;;;;9.39;65.51;98651.66;5023444;28;20509;-49
2022/04/08 01:15:34;;;;;;;0.30;0.20;;;;;;;9.22;65.88;98647.19;5030159;28;20444;-49
2022/04/08 01:18:01;;;;;;;0.30;0.20;;;;;;;9.17;66.77;98652.69;5031889;28;20506;-49
2022/04/08 01:20:28;;;;;;;0.30;0.20;;;;;;;9.23;66.20;98663.97;5031570;28;20478;-49
2022/04/08 01:22:55;;;;;;;0.30;0.20;;;;;;;9.26;66.33;98661.16;5028259;28;20952;-49
2022/04/08 01:25:21;;;;;;;0.30;0.20;;;;;;;9.29;67.21;98653.03;5031309;28;20491;-50
2022/04/08 01:27:48;;;;;;;0.30;0.20;;;;;;;9.27;67.62;98660.22;5031679;28;20952;-49
2022/04/08 01:30:16;;;;;;;0.30;0.20;;;;;;;9.22;67.69;98657.81;5031316;28;20510;-49
2022/04/08 01:32:43;;;;;;;0.40;0.33;;;;;;;9.19;67.79;98657.97;5031998;28;20451;-49
2022/04/08 01:35:10;;;;;;;0.30;0.20;;;;;;;9.09;67.70;98667.28;5029937;28;20471;-49
2022/04/08 01:37:37;;;;;;;0.30;0.20;;;;;;;9.10;67.97;98672.50;5031544;28;20448;-49
2022/04/08 01:40:04;;;;;;;0.30;0.20;;;;;;;9.04;68.16;98666.63;5030507;28;20459;-49
2022/04/08 01:42:31;;;;;;;0.30;0.20;;;;;;;9.06;69.02;98676.25;5031677;28;20448;-49
2022/04/08 01:44:58;;;;;;;0.30;0.20;;;;;;;9.06;68.52;98670.94;5031615;28;20487;-49
2022/04/08 01:47:24;;;;;;;0.30;0.20;;;;;;;9.00;69.21;98671.22;5031458;28;20451;-49
2022/04/08 01:49:51;;;;;;;0.30;0.20;;;;;;;9.02;69.07;98679.97;5031403;28;20448;-49
2022/04/08 01:52:18;;;;;;;0.30;0.20;;;;;;;8.98;69.35;98681.06;5031343;28;20509;-49
2022/04/08 01:54:44;;;;;;;0.30;0.20;;;;;;;9.00;69.26;98684.47;5031527;28;20594;-49
2022/04/08 01:57:11;;;;;;;0.30;0.20;;;;;;;9.03;69.39;98686.13;5031460;28;20487;-49
2022/04/08 01:59:38;;;;;;;0.30;0.20;;;;;;;8.98;69.77;98688.13;5032869;28;20490;-49
2022/04/08 02:02:05;;;;;;;0.30;0.20;;;;;;;8.92;70.28;98686.66;5035012;28;20487;-49
2022/04/08 02:04:32;;;;;;;0.30;0.20;;;;;;;8.91;69.82;98692.88;5032337;28;20491;-49
2022/04/08 02:07:01;;;;;;;0.30;0.20;;;;;;;8.90;69.90;98694.66;5029080;28;20474;-49
2022/04/08 02:09:28;;;;;;;0.30;0.20;;;;;;;8.92;70.41;98701.69;5035006;28;20482;-49
2022/04/08 02:11:55;;;;;;;1.07;1.07;;;;;;;8.96;70.44;98693.53;5034972;28;20458;-49
2022/04/08 02:14:22;;;;;;;0.30;0.20;;;;;;;8.93;70.58;98698.97;5032910;28;20475;-49
2022/04/08 02:16:49;;;;;;;0.30;0.20;;;;;;;8.86;70.70;98708.13;5034838;28;20478;-49
2022/04/08 02:19:15;;;;;;;0.30;0.20;;;;;;;8.88;71.07;98712.41;5034802;28;20443;-49
2022/04/08 02:21:42;;;;;;;0.30;0.20;;;;;;;8.84;70.92;98710.00;5030483;28;20452;-49
2022/04/08 02:24:09;;;;;;;0.30;0.20;;;;;;;8.87;71.50;98707.19;5034788;28;20471;-49
2022/04/08 02:26:36;;;;;;;0.30;0.20;;;;;;;8.80;71.72;98711.06;5034527;28;20455;-49
2022/04/08 02:29:03;;;;;;;0.77;0.77;;;;;;;8.82;71.35;98719.81;5034632;28;20510;-49
2022/04/08 02:31:29;;;;;;;0.30;0.20;;;;;;;8.79;71.40;98722.59;5034700;28;20460;-49
2022/04/08 02:33:56;;;;;;;0.30;0.20;;;;;;;8.86;71.42;98718.72;5034070;28;20485;-49
2022/04/08 02:36:23;;;;;;;0.30;0.20;;;;;;;8.87;72.13;98720.44;5032167;28;20448;-49
2022/04/08 02:38:49;;;;;;;0.30;0.20;;;;;;;8.89;71.04;98716.78;5034351;28;20452;-49
2022/04/08 02:41:16;;;;;;;0.30;0.20;;;;;;;8.93;71.43;98717.53;5034543;28;20459;-49
2022/04/08 02:43:42;;;;;;;0.30;0.20;;;;;;;9.06;71.21;98725.75;5033991;28;20522;-50
2022/04/08 02:46:09;;;;;;;0.30;0.20;;;;;;;9.06;70.97;98723.97;5034090;28;21089;-49
2022/04/08 02:48:36;;;;;;;0.30;0.20;;;;;;;8.88;72.10;98732.75;5033975;28;20479;-49
2022/04/08 02:51:02;;;;;;;0.30;0.20;;;;;;;8.87;71.49;98729.25;5034093;28;20980;-49
2022/04/08 02:53:29;;;;;;;0.30;0.20;;;;;;;8.90;71.20;98742.34;5034139;28;20472;-49
2022/04/08 02:55:55;;;;;;;0.30;0.20;;;;;;;8.93;71.10;98737.84;5033815;28;20451;-49
2022/04/08 02:58:22;;;;;;;0.30;0.20;;;;;;;8.94;72.45;98734.28;5034130;28;20448;-49
2022/04/08 03:00:48;;;;;;;0.30;0.20;;;;;;;8.93;71.74;98735.22;5033857;28;20444;-49
2022/04/08 03:03:15;;;;;;;0.60;0.60;;;;;;;8.96;72.26;98730.63;5033474;28;20472;-49
2022/04/08 03:05:42;;;;;;;0.30;0.20;;;;;;;8.99;71.99;98727.81;5025297;28;20480;-49
2022/04/08 03:08:08;;;;;;;0.30;0.20;;;;;;;8.84;72.85;98731.19;5033947;28;20452;-49
2022/04/08 03:10:35;;;;;;;0.30;0.20;;;;;;;8.77;72.73;98729.75;5032969;28;20498;-49
2022/04/08 03:13:02;;;;;;;0.30;0.20;;;;;;;8.65;72.79;98719.75;5033792;28;20514;-49
2022/04/08 03:15:28;;;;;;;0.30;0.20;;;;;;;8.74;72.87;98724.59;5031154;28;20443;-49
2022/04/08 03:17:55;;;;;;;0.30;0.20;;;;;;;8.62;73.93;98726.00;5033477;28;20474;-49
2022/04/08 03:20:22;;;;;;;0.30;0.20;;;;;;;8.56;73.68;98729.81;5033466;28;20826;-49
2022/04/08 03:22:48;;;;;;;0.30;0.20;;;;;;;8.56;73.77;98724.50;5029553;28;20510;-49
2022/04/08 03:25:15;;;;;;;0.30;0.20;;;;;;;8.57;73.76;98723.59;5033292;28;20519;-49
2022/04/08 03:27:42;;;;;;;0.30;0.20;;;;;;;8.52;74.32;98720.28;5033648;28;20510;-49
2022/04/08 03:30:09;;;;;;;0.30;0.10;;;;;;;8.51;74.58;98725.66;5033412;28;20483;-49
2022/04/08 03:32:36;;;;;;;0.30;0.20;;;;;;;8.47;75.10;98724.91;5033643;28;20525;-49
2022/04/08 03:35:03;;;;;;;0.30;0.20;;;;;;;8.50;74.78;98730.09;5030400;28;20471;-49
2022/04/08 03:37:30;;;;;;;0.30;0.20;;;;;;;8.51;74.57;98729.16;5033404;28;20448;-49
2022/04/08 03:39:57;;;;;;;0.30;0.20;;;;;;;8.45;75.23;98721.50;5033135;28;20447;-49
2022/04/08 03:42:23;;;;;;;0.30;0.20;;;;;;;8.36;75.73;98724.56;5033187;28;20455;-49
2022/04/08 03:44:51;;;;;;;0.30;0.20;;;;;;;8.43;75.83;98733.94;5033150;28;20535;-49
2022/04/08 03:47:19;;;;;;;0.30;0.20;;;;;;;8.40;76.17;98741.16;5033385;28;20513;-49
2022/04/08 03:49:46;;;;;;;0.30;0.20;;;;;;;8.41;76.55;98746.41;5032757;28;20944;-49
2022/04/08 03:52:12;;;;;;;0.30;0.20;;;;;;;8.41;76.43;98737.59;5033157;28;20479;-49
2022/04/08 03:54:39;;;;;;;0.30;0.20;;;;;;;8.34;76.87;98742.28;5032501;28;20972;-49
2022/04/08 03:57:06;;;;;;;0.30;0.20;;;;;;;8.37;76.69;98741.31;5015760;28;20452;-49
2022/04/08 03:59:39;;;;;;;0.30;0.20;;;;;;;8.33;76.57;98748.47;5032991;28;20813;-49
2022/04/08 04:02:05;;;;;;;0.30;0.20;;;;;;;8.27;77.00;98740.81;5032819;28;20539;-49
2022/04/08 04:04:33;;;;;;;0.30;0.20;;;;;;;8.27;77.29;98746.13;5029928;28;20502;-49
2022/04/08 04:07:00;;;;;;;0.30;0.20;;;;;;;8.31;77.11;98753.84;5025848;28;20537;-49
2022/04/08 04:09:27;;;;;;;0.30;0.20;;;;;;;8.26;77.31;98749.69;5032676;28;20513;-49
2022/04/08 04:11:53;;;;;;;0.30;0.20;;;;;;;8.29;77.08;98750.41;5032551;28;20931;-49
2022/04/08 04:14:20;;;;;;;0.30;0.20;;;;;;;8.24;77.08;98749.75;5030263;28;20467;-50
2022/04/08 04:16:47;;;;;;;0.30;0.20;;;;;;;8.24;77.28;98762.13;5032389;28;20971;-49
2022/04/08 04:19:14;;;;;;;0.30;0.20;;;;;;;8.23;76.87;98763.06;5032504;28;21006;-49
2022/04/08 04:21:40;;;;;;;0.30;0.20;;;;;;;8.26;77.22;98761.13;5028319;28;20453;-49
2022/04/08 04:24:07;;;;;;;0.30;0.20;;;;;;;8.25;77.45;98770.00;5031149;28;20472;-50
2022/04/08 04:26:34;;;;;;;0.30;0.20;;;;;;;8.24;77.45;98775.38;5032401;28;20515;-49
2022/04/08 04:29:01;;;;;;;0.30;0.20;;;;;;;8.34;76.88;98766.09;5031358;28;20447;-49
2022/04/08 04:31:27;;;;;;;0.30;0.20;;;;;;;8.31;77.36;98774.16;5032497;28;20509;-49
2022/04/08 04:33:54;;;;;;;0.30;0.20;;;;;;;8.29;77.86;98760.13;5032206;28;20903;-49
2022/04/08 04:36:21;;;;;;;0.30;0.20;;;;;;;8.18;78.09;98767.69;5029706;28;20443;-49
2022/04/08 04:38:47;;;;;;;0.30;0.20;;;;;;;8.21;77.68;98763.09;5032011;28;20501;-50
2022/04/08 04:41:15;;;;;;;0.30;0.20;;;;;;;8.59;76.47;98768.53;5026169;28;20958;-49
2022/04/08 04:43:41;;;;;;;0.30;0.20;;;;;;;8.64;76.19;98773.66;5013185;28;20989;-50
2022/04/08 04:46:08;;;;;;;0.30;0.20;;;;;;;8.73;75.36;98778.50;5027496;28;20487;-49
2022/04/08 04:48:35;;;;;;;0.30;0.20;;;;;;;8.75;75.42;98788.09;5031997;28;20456;-49
2022/04/08 04:51:01;;;;;;;1.83;0.83;;;;;;;8.74;75.15;98791.66;5032171;28;20479;-49
2022/04/08 04:53:28;;;;;;;0.30;0.20;;;;;;;8.74;75.14;98793.47;5031586;28;20525;-50
2022/04/08 04:55:54;;;;;;;0.30;0.20;;;;;;;8.85;75.41;98801.78;5031823;28;20448;-49
2022/04/08 04:58:21;;;;;;;0.30;0.20;;;;;;;8.96;74.81;98793.34;5032290;28;20455;-50
2022/04/08 05:00:48;;;;;;;0.30;0.20;;;;;;;8.97;74.94;98793.28;5031605;28;20808;-50
2022/04/08 05:03:14;;;;;;;0.30;0.20;;;;;;;8.86;75.07;98800.84;5031315;28;20514;-50
2022/04/08 05:05:41;;;;;;;0.30;0.20;;;;;;;8.69;75.38;98800.78;5031575;28;20502;-50
2022/04/08 05:08:08;;;;;;;0.30;0.20;;;;;;;8.66;76.13;98795.63;5031533;28;20495;-50
2022/04/08 05:10:35;;;;;;;0.30;0.10;;;;;;;8.63;76.55;98801.88;5031858;28;20451;-50
2022/04/08 05:13:02;;;;;;;1.13;1.13;;;;;;;8.66;76.35;98799.13;5022856;28;20976;-49
2022/04/08 05:15:32;;;;;;;0.30;0.20;;;;;;;8.85;75.80;98791.19;5029780;28;20443;-50
2022/04/08 05:17:59;;;;;;;0.30;0.20;;;;;;;8.92;75.20;98797.09;5031783;28;20470;-49
2022/04/08 05:20:26;;;;;;;0.30;0.20;;;;;;;8.68;77.00;98801.69;5014025;28;20452;-50
2022/04/08 05:22:53;;;;;;;0.30;0.20;;;;;;;8.82;76.23;98799.28;5010357;28;20475;-49
2022/04/08 05:25:20;;;;;;;0.30;0.17;;;;;;;8.73;76.20;98799.69;5014185;28;20533;-49
2022/04/08 05:27:47;;;;;;;0.30;0.20;;;;;;;8.71;76.71;98790.97;5031472;28;20455;-49
2022/04/08 05:30:18;;;;;;;0.40;0.33;;;;;;;8.96;76.84;98796.00;5031827;28;20451;-49
2022/04/08 05:32:46;;;;;;;0.30;0.20;;;;;;;8.85;76.24;98799.13;5031602;28;20443;-50
2022/04/08 05:35:14;;;;;;;0.30;0.20;;;;;;;8.92;76.81;98790.00;5033689;28;21019;-50
2022/04/08 05:37:42;;;;;;;0.30;0.20;;;;;;;8.81;77.21;98793.13;5035394;28;20475;-50
2022/04/08 05:40:13;;;;;;;0.30;0.20;;;;;;;8.84;77.31;98785.03;5035672;28;20464;-49
2022/04/08 05:42:44;;;;;;;0.30;0.20;;;;;;;9.01;76.68;98778.94;5032994;28;20440;-50
2022/04/08 05:45:11;;;;;;;0.30;0.20;;;;;;;8.78;77.50;98774.72;5035432;28;20517;-50
2022/04/08 05:47:39;;;;;;;1.07;1.07;;;;;;;9.20;76.25;98774.53;5035201;28;20857;-50
2022/04/08 05:50:06;;;;;;;0.30;0.20;;;;;;;9.07;76.18;98762.78;5034984;28;20455;-49
2022/04/08 05:52:33;;;;;;;0.30;0.20;;;;;;;9.11;77.14;98761.69;5035259;28;20518;-50
2022/04/08 05:54:59;;;;;;;0.30;0.20;;;;;;;9.03;77.16;98765.63;5035139;28;20988;-50
2022/04/08 05:57:26;;;;;;;0.30;0.20;;;;;;;9.31;76.90;98767.81;5034751;28;20482;-50
2022/04/08 05:59:59;;;;;;;0.30;0.20;;;;;;;9.08;77.01;98777.75;5035032;28;20448;-50
2022/04/08 06:02:25;;;;;;;0.30;0.20;;;;;;;9.04;77.84;98780.59;5034877;28;20959;-50
2022/04/08 06:04:52;;;;;;;0.30;0.20;;;;;;;9.04;77.87;98784.09;5034678;28;20976;-49
2022/04/08 06:07:19;;;;;;;0.30;0.20;;;;;;;9.38;76.60;98785.19;5035079;28;20549;-50
2022/04/08 06:09:45;;;;;;;0.30;0.20;;;;;;;9.14;77.40;98785.41;5034863;28;20447;-50
2022/04/08 06:12:12;;;;;;;0.30;0.20;;;;;;;9.61;76.26;98782.28;5025539;28;20509;-50
2022/04/08 06:14:38;;;;;;;0.40;0.30;;;;;;;9.10;77.61;98773.22;5032566;28;20468;-50
2022/04/08 06:17:05;;;;;;;0.30;0.20;;;;;;;9.01;78.97;98776.31;5034943;28;20525;-50
2022/04/08 06:19:32;;;;;;;0.40;0.40;;;;;;;9.28;77.69;98771.50;5034562;28;20966;-50
2022/04/08 06:21:59;;;;;;;0.30;0.20;;;;;;;9.02;79.25;98772.72;5029145;28;20456;-50
2022/04/08 06:24:25;;;;;;;0.30;0.20;;;;;;;9.14;79.34;98777.44;5034589;28;20468;-49
2022/04/08 06:26:52;;;;;;;0.30;0.20;;;;;;;9.17;79.52;98777.28;5033738;28;20999;-50
2022/04/08 06:29:18;;;;;;;0.30;0.30;;;;;;;9.09;79.29;98774.16;5034478;28;20948;-50
2022/04/08 06:31:45;;;;;;;0.30;0.20;;;;;;;9.22;79.33;98768.28;5034255;28;20479;-50
2022/04/08 06:34:12;;;;;;;0.40;0.33;;;;;;;9.38;78.35;98767.47;5034304;28;21032;-50
2022/04/08 06:36:39;;;;;;;0.30;0.20;;;;;;;9.37;78.97;98760.44;5034341;28;20443;-50
2022/04/08 06:39:05;;;;;;;0.40;0.40;;;;;;;9.34;79.61;98749.16;5034190;28;20452;-50
2022/04/08 06:41:32;;;;;;;0.30;0.20;;;;;;;9.47;78.92;98747.63;5031977;28;20506;-50
2022/04/08 06:43:59;;;;;;;0.30;0.20;;;;;;;9.67;78.07;98751.91;5034365;28;20464;-50
2022/04/08 06:46:25;;;;;;;0.30;0.20;;;;;;;9.66;77.42;98744.91;5033273;28;20499;-50
2022/04/08 06:48:52;;;;;;;0.30;0.20;;;;;;;9.76;77.59;98743.50;5034107;28;20443;-50
2022/04/08 06:51:18;;;;;;;0.30;0.20;;;;;;;9.58;78.40;98731.16;5033985;28;20444;-50
2022/04/08 06:53:45;;;;;;;0.30;0.20;;;;;;;9.73;77.56;98727.72;5034235;28;20467;-50
2022/04/08 06:56:12;;;;;;;0.30;0.20;;;;;;;9.63;78.69;98731.78;5034008;28;20479;-50
2022/04/08 06:58:39;;;;;;;0.30;0.20;;;;;;;9.77;77.80;98731.97;5033850;28;21014;-50
2022/04/08 07:01:06;;;;;;;0.30;0.20;;;;;;;9.82;77.61;98713.16;5033690;28;20967;-50
2022/04/08 07:03:34;;;;;;;0.30;0.20;;;;;;;9.59;78.20;98715.16;5034118;28;20491;-50
2022/04/08 07:06:01;;;;;;;0.30;0.20;;;;;;;9.74;77.32;98716.22;5033652;28;21009;-50
2022/04/08 07:08:27;;;;;;;0.30;0.20;;;;;;;9.99;76.54;98710.47;5033751;28;20459;-50
2022/04/08 07:10:54;;;;;;;0.30;0.20;;;;;;;10.05;75.96;98711.03;5031721;28;20529;-50
2022/04/08 07:13:20;;;;;;;0.30;0.20;;;;;;;10.26;75.00;98702.91;5026135;28;20468;-50
2022/04/08 07:15:47;;;;;;;0.30;0.20;;;;;;;10.02;76.19;98702.38;5015977;28;20447;-50
2022/04/08 07:18:14;;;;;;;0.30;0.20;;;;;;;10.29;75.10;98700.97;5033648;28;20814;-50
2022/04/08 07:20:41;;;;;;;0.30;0.20;;;;;;;10.16;75.29;98697.22;5033654;28;20448;-50
2022/04/08 07:23:07;;;;;;;0.30;0.20;;;;;;;10.12;74.89;98689.47;5029598;28;20448;-50
2022/04/08 07:25:34;;;;;;;0.97;0.97;;;;;;;10.07;75.48;98689.72;5007514;28;20502;-50
2022/04/08 07:28:01;;;;;;;0.30;0.20;;;;;;;9.96;75.44;98689.41;5033292;28;20479;-50
2022/04/08 07:30:28;;;;;;;0.30;0.20;;;;;;;10.06;75.21;98696.81;5033414;28;20510;-50
2022/04/08 07:32:55;;;;;;;0.30;0.20;;;;;;;9.98;75.18;98683.06;5033312;28;20554;-50
2022/04/08 07:35:23;;;;;;;0.30;0.20;;;;;;;9.98;75.38;98691.03;5033231;28;20825;-50
2022/04/08 07:37:50;;;;;;;0.90;0.87;;;;;;;10.16;74.96;98688.38;5033184;28;20527;-50
2022/04/08 07:40:17;;;;;;;0.30;0.20;;;;;;;10.29;74.56;98684.19;5032935;28;20448;-50
2022/04/08 07:42:44;;;;;;;0.30;0.20;;;;;;;10.20;74.95;98688.13;5030483;28;20451;-50
2022/04/08 07:45:11;;;;;;;0.30;0.20;;;;;;;10.30;74.00;98681.44;5033374;28;20490;-50
2022/04/08 07:47:38;;;;;;;0.30;0.20;;;;;;;10.27;73.71;98678.91;5032732;28;20488;-50
2022/04/08 07:50:10;;;;;;;0.30;0.20;;;;;;;10.06;74.11;98680.03;5033015;28;20868;-50
2022/04/08 07:52:38;;;;;;;0.30;0.20;;;;;;;10.21;74.38;98678.38;5032962;28;20947;-50
2022/04/08 07:55:06;;;;;;;0.30;0.20;;;;;;;10.13;74.51;98677.91;5033065;28;20887;-50
2022/04/08 07:57:33;;;;;;;0.30;0.20;;;;;;;10.00;74.16;98680.34;5032607;28;20510;-50
2022/04/08 08:00:00;;;;;;;0.30;0.20;;;;;;;10.07;74.18;98679.94;5033011;28;20957;-50
2022/04/08 08:02:29;;;;;;;0.30;0.20;;;;;;;10.13;73.92;98680.56;5032807;28;21071;-50
2022/04/08 08:04:56;;;;;;;0.30;0.20;;;;;;;10.30;73.67;98678.78;5032552;28;20873;-50
2022/04/08 08:07:22;;;;;;;0.30;0.20;;;;;;;10.42;73.93;98681.72;5032440;28;20538;-50
2022/04/08 08:09:49;;;;;;;0.30;0.20;;;;;;;10.50;74.08;98671.53;5032558;28;20451;-50
2022/04/08 08:12:22;;;;;;;0.30;0.20;;;;;;;10.43;73.28;98671.00;5023529;28;20444;-50
2022/04/08 08:14:49;;;;;;;0.30;0.20;;;;;;;10.37;73.69;98673.97;5029755;28;20463;-50
2022/04/08 08:17:15;;;;;;;0.30;0.20;;;;;;;10.50;73.79;98668.88;5031800;28;20820;-50
2022/04/08 08:19:42;;;;;;;0.30;0.20;;;;;;;10.39;74.53;98675.59;5032586;28;20455;-50
2022/04/08 08:22:09;;;;;;;0.30;0.20;;;;;;;10.32;73.99;98665.41;5028129;28;20860;-50
2022/04/08 08:24:35;;;;;;;0.30;0.20;;;;;;;10.52;73.61;98672.28;5032612;28;20521;-50
2022/04/08 08:27:02;;;;;;;0.30;0.20;;;;;;;10.56;73.71;98671.19;5031979;28;21057;-50
2022/04/08 08:29:29;;;;;;;0.30;0.30;;;;;;;10.61;73.66;98671.81;5032554;28;20506;-50
2022/04/08 08:31:55;;;;;;;0.30;0.20;;;;;;;10.50;73.06;98672.38;5032158;28;21105;-50
2022/04/08 08:34:23;;;;;;;0.30;0.30;;;;;;;10.61;73.73;98675.31;5031848;28;20479;-50
2022/04/08 08:36:51;;;;;;;0.30;0.20;;;;;;;10.46;74.26;98669.97;5032074;28;20455;-50
2022/04/08 08:39:19;;;;;;;0.40;0.40;;;;;;;10.85;74.44;98669.59;5032413;28;20459;-50
2022/04/08 08:41:48;;;;;;;0.30;0.20;;;;;;;10.42;75.19;98663.13;5029683;28;20870;-50
2022/04/08 08:44:15;;;;;;;0.30;0.20;;;;;;;10.73;75.53;98659.63;5031972;28;20518;-50
2022/04/08 08:46:42;;;;;;;0.30;0.20;;;;;;;10.52;75.84;98653.69;5031528;28;20483;-50
2022/04/08 08:49:11;;;;;;;0.30;0.20;;;;;;;10.87;74.88;98657.06;5026377;28;20455;-50
2022/04/08 08:51:41;;;;;;;0.30;0.20;;;;;;;10.76;73.68;98651.50;5032210;28;20486;-50
2022/04/08 08:54:08;;;;;;;0.30;0.20;;;;;;;10.59;73.75;98652.44;5032197;28;20464;-50
2022/04/08 08:56:35;;;;;;;0.30;0.20;;;;;;;10.28;75.45;98640.84;5030607;28;20444;-50
2022/04/08 08:59:01;;;;;;;0.30;0.20;;;;;;;10.35;76.72;98644.84;5032101;28;20459;-50
2022/04/08 09:01:28;;;;;;;0.30;0.20;;;;;;;10.55;77.05;98640.25;5031916;28;20533;-50
2022/04/08 09:03:55;;;;;;;0.30;0.20;;;;;;;10.57;77.51;98639.25;5031940;28;20564;-50
2022/04/08 09:06:22;;;;;;;0.30;0.20;;;;;;;10.20;76.10;98640.34;5032200;28;20570;-50
2022/04/08 09:08:57;;;;;;;0.30;0.20;;;;;;;10.26;75.79;98632.06;5032169;28;20517;-50
2022/04/08 09:11:27;;;;;;;0.83;0.83;;;;;;;10.59;75.67;98637.34;5030183;28;20517;-50
2022/04/08 09:14:01;;;;;;;0.30;0.20;;;;;;;10.21;79.89;98634.13;5032439;28;21033;-50
2022/04/08 09:16:29;;;;;;;0.30;0.20;;;;;;;10.27;79.75;98628.47;5036279;28;20435;-50
2022/04/08 09:18:56;;;;;;;0.30;0.20;;;;;;;10.18;83.57;98631.59;5034467;28;20435;-50
2022/04/08 09:21:24;;;;;;;0.30;0.20;;;;;;;9.78;86.09;98623.09;5033008;28;20829;-50
2022/04/08 09:23:52;;;;;;;0.30;0.20;;;;;;;9.79;88.07;98616.84;5034735;28;20987;-50
2022/04/08 09:26:19;;;;;;;0.30;0.20;;;;;;;10.27;85.04;98620.50;5035453;28;20486;-50
2022/04/08 09:28:46;;;;;;;0.30;0.20;;;;;;;9.90;88.53;98623.38;5035445;28;21154;-50
2022/04/08 09:31:20;;;;;;;0.30;0.20;;;;;;;9.90;90.01;98616.28;5035985;28;20521;-50
2022/04/08 09:33:55;;;;;;;0.30;0.20;;;;;;;9.86;92.04;98616.50;5011823;28;20472;-50
2022/04/08 09:36:30;;;;;;;0.30;0.20;;;;;;;9.68;90.31;98613.88;5035696;28;20452;-50
2022/04/08 09:38:57;;;;;;;0.30;0.20;;;;;;;9.41;92.71;98607.34;5035346;28;20911;-50
2022/04/08 09:41:38;;;;;;;0.90;0.80;;;;;;;9.33;97.32;98591.84;5033109;28;20874;-50
2022/04/08 09:44:09;;;;;;;0.30;0.20;;;;;;;9.24;97.24;98592.31;5035610;28;20467;-50
2022/04/08 09:46:37;;;;;;;0.30;0.20;;;;;;;9.29;100.00;98584.97;5035554;28;20529;-50
2022/04/08 09:49:05;;;;;;;0.30;0.20;;;;;;;9.49;100.00;98582.16;5028375;28;20807;-50
2022/04/08 09:51:41;;;;;;;0.30;0.20;;;;;;;9.55;98.75;98570.38;5034843;28;20498;-50
2022/04/08 09:54:10;;;;;;;0.30;0.20;;;;;;;9.57;97.77;98567.63;5035407;28;20988;-50
2022/04/08 09:56:37;;;;;;;0.30;0.20;;;;;;;9.38;99.35;98567.72;5035184;28;20475;-50
2022/04/08 09:59:12;;;;;;;0.30;0.20;;;;;;;9.66;98.26;98556.53;5035258;28;20531;-50
2022/04/08 10:01:40;;;;;;;0.30;0.20;;;;;;;9.33;98.24;98554.72;5035170;28;20447;-50
2022/04/08 10:04:08;;;;;;;0.30;0.20;;;;;;;9.63;95.74;98551.41;5034589;28;20509;-50
2022/04/08 10:06:40;;;;;;;0.30;0.20;;;;;;;9.19;97.69;98547.47;5035196;28;20538;-50
2022/04/08 10:09:09;;;;;;;0.30;0.20;;;;;;;9.26;99.70;98547.16;5035129;28;20455;-50
2022/04/08 10:12:01;;;;;;;0.30;0.20;;;;;;;9.10;100.00;98547.06;5027880;28;20522;-50
2022/04/08 10:14:40;;;;;;;0.30;0.20;;;;;;;9.37;99.87;98547.47;5014954;28;20455;-50
2022/04/08 10:17:08;;;;;;;0.30;0.20;;;;;;;9.05;100.00;98549.13;5034437;28;20974;-50
2022/04/08 10:19:35;;;;;;;0.30;0.20;;;;;;;8.93;100.00;98547.94;5034656;28;20490;-50
2022/04/08 10:22:16;;;;;;;0.30;0.20;;;;;;;8.92;100.00;98543.56;5030940;28;20448;-50
2022/04/08 10:24:56;;;;;;;0.30;0.20;;;;;;;8.65;100.00;98544.94;5034779;28;20494;-50
2022/04/08 10:27:35;;;;;;;0.30;0.20;;;;;;;8.88;100.00;98542.00;5011373;28;20999;-50
2022/04/08 10:30:11;;;;;;;0.30;0.20;;;;;;;8.65;100.00;98542.28;5034541;28;20447;-50
2022/04/08 10:32:38;;;;;;;0.30;0.20;;;;;;;8.78;100.00;98546.06;5034936;28;20497;-50
2022/04/08 10:35:15;;;;;;;0.30;0.20;;;;;;;8.61;100.00;98536.25;5034163;28;20479;-50
2022/04/08 10:37:53;;;;;;;0.30;0.20;;;;;;;9.09;100.00;98537.41;5034874;28;20497;-50
2022/04/08 10:40:20;;;;;;;0.30;0.20;;;;;;;8.98;100.00;98529.16;5034569;28;20451;-50
2022/04/08 10:42:57;;;;;;;0.30;0.20;;;;;;;8.80;100.00;98517.69;5032511;28;20479;-50
2022/04/08 10:45:24;;;;;;;0.30;0.20;;;;;;;8.76;100.00;98516.97;5034194;28;20936;-50
2022/04/08 10:47:51;;;;;;;0.30;0.20;;;;;;;8.77;100.00;98508.09;5027211;28;20514;-50
2022/04/08 10:50:28;;;;;;;0.30;0.20;;;;;;;9.02;100.00;98513.00;5034105;28;20491;-50
2022/04/08 10:53:08;;;;;;;0.30;0.20;;;;;;;8.83;100.00;98510.44;5034087;28;20451;-50
2022/04/08 10:55:45;;;;;;;0.30;0.20;;;;;;;8.63;100.00;98512.34;5033789;28;20451;-50
2022/04/08 10:58:13;;;;;;;0.30;0.20;;;;;;;8.66;100.00;98517.50;5034111;28;20513;-50
2022/04/08 11:00:40;;;;;;;0.30;0.20;;;;;;;9.06;100.00;98508.44;5033997;28;20452;-50
2022/04/08 11:03:10;;;;;;;0.30;0.20;;;;;;;8.71;100.00;98503.09;5033615;28;21002;-51
2022/04/08 11:05:40;;;;;;;0.30;0.20;;;;;;;8.76;100.00;98510.81;5033778;28;20452;-50
2022/04/08 11:08:07;;;;;;;0.30;0.20;;;;;;;9.03;100.00;98503.25;5033797;28;20483;-51
2022/04/08 11:10:34;;;;;;;0.30;0.20;;;;;;;9.20;100.00;98492.66;5033630;28;20941;-50
2022/04/08 11:13:01;;;;;;;0.30;0.20;;;;;;;8.96;100.00;98497.44;5025114;28;20475;-50
2022/04/08 11:15:30;;;;;;;0.30;0.20;;;;;;;8.87;100.00;98497.88;5031341;28;20861;-50
2022/04/08 11:18:00;;;;;;;0.30;0.20;;;;;;;8.80;100.00;98494.69;5033560;28;20514;-50
2022/04/08 11:20:27;;;;;;;0.30;0.20;;;;;;;8.90;100.00;98492.41;5033901;28;20502;-50
2022/04/08 11:22:55;;;;;;;0.30;0.20;;;;;;;8.77;100.00;98488.69;5029409;28;20509;-50
2022/04/08 11:25:30;;;;;;;0.30;0.20;;;;;;;8.64;100.00;98480.53;5032831;28;20448;-50
2022/04/08 11:28:09;;;;;;;0.30;0.20;;;;;;;8.73;100.00;98471.22;5033412;28;20544;-51
2022/04/08 11:30:40;;;;;;;0.30;0.20;;;;;;;8.62;100.00;98466.47;5009323;28;20990;-50
2022/04/08 11:33:15;;;;;;;0.30;0.20;;;;;;;8.70;100.00;98459.00;5032698;28;20498;-50
2022/04/08 11:35:42;;;;;;;0.30;0.20;;;;;;;8.73;100.00;98447.41;5033407;28;20795;-50
2022/04/08 11:38:13;;;;;;;0.30;0.20;;;;;;;8.80;100.00;98441.72;5033177;28;20447;-50
2022/04/08 11:40:40;;;;;;;0.30;0.20;;;;;;;8.41;100.00;98441.94;5033521;28;20444;-50
2022/04/08 11:43:08;;;;;;;0.30;0.20;;;;;;;8.34;100.00;98437.84;5028059;28;20452;-52